sensor_id;sensor_type;location;lat;lon;timestamp;temperature;humidity
47162;DHT22;32921;53.256;8.198;2023-12-14T00:00:19;4.80;99.90
47162;DHT22;32921;53.256;8.198;2023-12-14T00:02:44;4.80;99.90
47162;DHT22;32921;53.256;8.198;2023-12-14T00:05:10;4.80;99.90
47162;DHT22;32921;53.256;8.198;2023-12-14T00:07:36;4.80;99.90
47162;DHT22;32921;53.256;8.198;2023-12-14T00:10:02;4.80;99.90
47162;DHT22;32921;53.256;8.198;2023-12-14T00:12:29;4.80;99.90
47162;DHT22;32921;53.256;8.198;2023-12-14T00:14:54;4.90;99.90
47162;DHT22;32921;53.256;8.198;2023-12-14T00:17:20;4.80;99.90
47162;DHT22;32921;53.256;8.198;2023-12-14T00:19:45;4.80;99.90
47162;DHT22;32921;53.256;8.198;2023-12-14T00:22:11;4.90;99.90
47162;DHT22;32921;53.256;8.198;2023-12-14T00:24:37;4.90;99.90
47162;DHT22;32921;53.256;8.198;2023-12-14T00:27:02;4.80;99.90
47162;DHT22;32921;53.256;8.198;2023-12-14T00:29:28;4.90;99.90
47162;DHT22;32921;53.256;8.198;2023-12-14T00:31:53;4.90;99.90
47162;DHT22;32921;53.256;8.198;2023-12-14T00:34:19;4.80;99.90
47162;DHT22;32921;53.256;8.198;2023-12-14T00:36:45;4.90;99.90
47162;DHT22;32921;53.256;8.198;2023-12-14T00:39:10;4.80;99.90
47162;DHT22;32921;53.256;8.198;2023-12-14T00:41:36;4.90;99.90
47162;DHT22;32921;53.256;8.198;2023-12-14T00:44:02;4.90;99.90
47162;DHT22;32921;53.256;8.198;2023-12-14T00:46:27;4.90;99.90
47162;DHT22;32921;53.256;8.198;2023-12-14T00:48:53;4.90;99.90
47162;DHT22;32921;53.256;8.198;2023-12-14T00:51:18;4.90;99.90
47162;DHT22;32921;53.256;8.198;2023-12-14T00:53:44;4.80;99.90
47162;DHT22;32921;53.256;8.198;2023-12-14T00:56:09;4.80;99.90
47162;DHT22;32921;53.256;8.198;2023-12-14T00:58:35;4.70;99.90
47162;DHT22;32921;53.256;8.198;2023-12-14T01:01:01;4.60;99.90
47162;DHT22;32921;53.256;8.198;2023-12-14T01:03:26;4.40;99.90
47162;DHT22;32921;53.256;8.198;2023-12-14T01:05:52;4.40;99.90
47162;DHT22;32921;53.256;8.198;2023-12-14T01:08:17;4.30;99.90
47162;DHT22;32921;53.256;8.198;2023-12-14T01:10:43;4.30;99.90
47162;DHT22;32921;53.256;8.198;2023-12-14T01:13:09;4.30;99.90
47162;DHT22;32921;53.256;8.198;2023-12-14T01:15:34;4.10;99.90
47162;DHT22;32921;53.256;8.198;2023-12-14T01:18:00;4.10;99.90
47162;DHT22;32921;53.256;8.198;2023-12-14T01:20:26;4.00;99.90
47162;DHT22;32921;53.256;8.198;2023-12-14T01:22:51;3.90;99.90
47162;DHT22;32921;53.256;8.198;2023-12-14T01:25:17;3.70;99.90
47162;DHT22;32921;53.256;8.198;2023-12-14T01:27:42;3.50;99.90
47162;DHT22;32921;53.256;8.198;2023-12-14T01:30:08;3.50;99.90
47162;DHT22;32921;53.256;8.198;2023-12-14T01:32:34;3.70;99.90
47162;DHT22;32921;53.256;8.198;2023-12-14T01:34:59;3.50;99.90
47162;DHT22;32921;53.256;8.198;2023-12-14T01:37:25;3.60;99.90
47162;DHT22;32921;53.256;8.198;2023-12-14T01:39:50;3.70;99.90
47162;DHT22;32921;53.256;8.198;2023-12-14T01:42:16;3.80;99.90
47162;DHT22;32921;53.256;8.198;2023-12-14T01:44:42;3.70;99.90
47162;DHT22;32921;53.256;8.198;2023-12-14T01:47:07;3.50;99.90
47162;DHT22;32921;53.256;8.198;2023-12-14T01:49:33;3.50;99.90
47162;DHT22;32921;53.256;8.198;2023-12-14T01:51:59;3.30;99.90
47162;DHT22;32921;53.256;8.198;2023-12-14T01:54:24;3.10;99.90
47162;DHT22;32921;53.256;8.198;2023-12-14T01:56:50;3.30;99.90
47162;DHT22;32921;53.256;8.198;2023-12-14T01:59:15;3.40;99.90
47162;DHT22;32921;53.256;8.198;2023-12-14T02:01:46;3.50;99.90
47162;DHT22;32921;53.256;8.198;2023-12-14T02:04:12;3.50;99.90
47162;DHT22;32921;53.256;8.198;2023-12-14T02:06:39;3.60;99.90
47162;DHT22;32921;53.256;8.198;2023-12-14T02:09:05;3.70;99.90
47162;DHT22;32921;53.256;8.198;2023-12-14T02:11:31;3.90;99.90
47162;DHT22;32921;53.256;8.198;2023-12-14T02:13:56;3.90;99.90
47162;DHT22;32921;53.256;8.198;2023-12-14T02:16:22;4.00;99.90
47162;DHT22;32921;53.256;8.198;2023-12-14T02:18:48;4.10;99.90
47162;DHT22;32921;53.256;8.198;2023-12-14T02:21:13;4.10;99.90
47162;DHT22;32921;53.256;8.198;2023-12-14T02:23:43;4.10;99.90
47162;DHT22;32921;53.256;8.198;2023-12-14T02:26:09;4.20;99.90
47162;DHT22;32921;53.256;8.198;2023-12-14T02:28:35;4.10;99.90
47162;DHT22;32921;53.256;8.198;2023-12-14T02:31:00;4.20;99.90
47162;DHT22;32921;53.256;8.198;2023-12-14T02:33:26;4.20;99.90
47162;DHT22;32921;53.256;8.198;2023-12-14T02:35:52;4.20;99.90
47162;DHT22;32921;53.256;8.198;2023-12-14T02:38:17;4.30;99.90
47162;DHT22;32921;53.256;8.198;2023-12-14T02:40:43;4.30;99.90
47162;DHT22;32921;53.256;8.198;2023-12-14T02:43:08;4.30;99.90
47162;DHT22;32921;53.256;8.198;2023-12-14T02:45:34;4.40;99.90
47162;DHT22;32921;53.256;8.198;2023-12-14T02:47:59;4.40;99.90
47162;DHT22;32921;53.256;8.198;2023-12-14T02:50:25;4.30;99.90
47162;DHT22;32921;53.256;8.198;2023-12-14T02:52:51;4.30;99.90
47162;DHT22;32921;53.256;8.198;2023-12-14T02:55:16;4.30;99.90
47162;DHT22;32921;53.256;8.198;2023-12-14T02:57:42;4.40;99.90
47162;DHT22;32921;53.256;8.198;2023-12-14T03:00:08;4.40;99.90
47162;DHT22;32921;53.256;8.198;2023-12-14T03:02:34;4.40;99.90
47162;DHT22;32921;53.256;8.198;2023-12-14T03:05:00;4.40;99.90
47162;DHT22;32921;53.256;8.198;2023-12-14T03:07:25;4.40;99.90
47162;DHT22;32921;53.256;8.198;2023-12-14T03:09:51;4.40;99.90
47162;DHT22;32921;53.256;8.198;2023-12-14T03:12:16;4.50;99.90
47162;DHT22;32921;53.256;8.198;2023-12-14T03:14:42;4.50;99.90
47162;DHT22;32921;53.256;8.198;2023-12-14T03:17:08;4.50;99.90
47162;DHT22;32921;53.256;8.198;2023-12-14T03:19:39;4.40;99.90
47162;DHT22;32921;53.256;8.198;2023-12-14T03:22:05;4.50;99.90
47162;DHT22;32921;53.256;8.198;2023-12-14T03:24:31;4.50;99.90
47162;DHT22;32921;53.256;8.198;2023-12-14T03:26:56;4.50;99.90
47162;DHT22;32921;53.256;8.198;2023-12-14T03:29:22;4.50;99.90
47162;DHT22;32921;53.256;8.198;2023-12-14T03:31:48;4.50;99.90
47162;DHT22;32921;53.256;8.198;2023-12-14T03:34:13;4.50;99.90
47162;DHT22;32921;53.256;8.198;2023-12-14T03:36:39;4.50;99.90
47162;DHT22;32921;53.256;8.198;2023-12-14T03:39:05;4.50;99.90
47162;DHT22;32921;53.256;8.198;2023-12-14T03:41:31;4.50;99.90
47162;DHT22;32921;53.256;8.198;2023-12-14T03:43:57;4.50;99.90
47162;DHT22;32921;53.256;8.198;2023-12-14T03:46:23;4.50;99.90
47162;DHT22;32921;53.256;8.198;2023-12-14T03:48:49;4.60;99.90
47162;DHT22;32921;53.256;8.198;2023-12-14T03:51:20;4.60;99.90
47162;DHT22;32921;53.256;8.198;2023-12-14T03:53:46;4.60;99.90
47162;DHT22;32921;53.256;8.198;2023-12-14T03:56:12;4.60;99.90
47162;DHT22;32921;53.256;8.198;2023-12-14T03:58:37;4.60;99.90
47162;DHT22;32921;53.256;8.198;2023-12-14T04:01:03;4.60;99.90
47162;DHT22;32921;53.256;8.198;2023-12-14T04:03:29;4.60;99.90
47162;DHT22;32921;53.256;8.198;2023-12-14T04:05:55;4.60;99.90
47162;DHT22;32921;53.256;8.198;2023-12-14T04:08:20;4.60;99.90
47162;DHT22;32921;53.256;8.198;2023-12-14T04:10:46;4.50;99.90
47162;DHT22;32921;53.256;8.198;2023-12-14T04:13:11;4.60;99.90
47162;DHT22;32921;53.256;8.198;2023-12-14T04:15:37;4.60;99.90
47162;DHT22;32921;53.256;8.198;2023-12-14T04:18:03;4.60;99.90
47162;DHT22;32921;53.256;8.198;2023-12-14T04:20:29;4.60;99.90
47162;DHT22;32921;53.256;8.198;2023-12-14T04:22:55;4.60;99.90
47162;DHT22;32921;53.256;8.198;2023-12-14T04:25:20;4.60;99.90
47162;DHT22;32921;53.256;8.198;2023-12-14T04:27:46;4.60;99.90
47162;DHT22;32921;53.256;8.198;2023-12-14T04:30:12;4.50;99.90
47162;DHT22;32921;53.256;8.198;2023-12-14T04:32:38;4.60;99.90
47162;DHT22;32921;53.256;8.198;2023-12-14T04:35:04;4.50;99.90
47162;DHT22;32921;53.256;8.198;2023-12-14T04:37:30;4.50;99.90
47162;DHT22;32921;53.256;8.198;2023-12-14T04:39:57;4.50;99.90
47162;DHT22;32921;53.256;8.198;2023-12-14T04:42:22;4.50;99.90
47162;DHT22;32921;53.256;8.198;2023-12-14T04:44:48;4.40;99.90
47162;DHT22;32921;53.256;8.198;2023-12-14T04:47:14;4.50;99.90
47162;DHT22;32921;53.256;8.198;2023-12-14T04:49:39;4.50;99.90
47162;DHT22;32921;53.256;8.198;2023-12-14T04:52:05;4.50;99.90
47162;DHT22;32921;53.256;8.198;2023-12-14T04:54:31;4.50;99.90
47162;DHT22;32921;53.256;8.198;2023-12-14T04:56:57;4.40;99.90
47162;DHT22;32921;53.256;8.198;2023-12-14T04:59:23;4.40;99.90
47162;DHT22;32921;53.256;8.198;2023-12-14T05:01:48;4.40;99.90
47162;DHT22;32921;53.256;8.198;2023-12-14T05:04:14;4.40;99.90
47162;DHT22;32921;53.256;8.198;2023-12-14T05:06:39;4.40;99.90
47162;DHT22;32921;53.256;8.198;2023-12-14T05:09:05;4.40;99.90
47162;DHT22;32921;53.256;8.198;2023-12-14T05:11:32;4.40;99.90
47162;DHT22;32921;53.256;8.198;2023-12-14T05:13:57;4.40;99.90
47162;DHT22;32921;53.256;8.198;2023-12-14T05:16:23;4.40;99.90
47162;DHT22;32921;53.256;8.198;2023-12-14T05:18:55;4.40;99.90
47162;DHT22;32921;53.256;8.198;2023-12-14T05:21:22;4.40;99.90
47162;DHT22;32921;53.256;8.198;2023-12-14T05:23:48;4.30;99.90
47162;DHT22;32921;53.256;8.198;2023-12-14T05:26:14;4.30;99.90
47162;DHT22;32921;53.256;8.198;2023-12-14T05:28:40;4.30;99.90
47162;DHT22;32921;53.256;8.198;2023-12-14T05:31:06;4.40;99.90
47162;DHT22;32921;53.256;8.198;2023-12-14T05:33:31;4.40;99.90
47162;DHT22;32921;53.256;8.198;2023-12-14T05:35:59;4.40;99.90
47162;DHT22;32921;53.256;8.198;2023-12-14T05:38:24;4.40;99.90
47162;DHT22;32921;53.256;8.198;2023-12-14T05:40:50;4.40;99.90
47162;DHT22;32921;53.256;8.198;2023-12-14T05:43:16;4.40;99.90
47162;DHT22;32921;53.256;8.198;2023-12-14T05:45:41;4.30;99.90
47162;DHT22;32921;53.256;8.198;2023-12-14T05:48:07;4.30;99.90
47162;DHT22;32921;53.256;8.198;2023-12-14T05:50:32;4.30;99.90
47162;DHT22;32921;53.256;8.198;2023-12-14T05:52:58;4.40;99.90
47162;DHT22;32921;53.256;8.198;2023-12-14T05:55:24;4.30;99.90
47162;DHT22;32921;53.256;8.198;2023-12-14T05:57:49;4.30;99.90
47162;DHT22;32921;53.256;8.198;2023-12-14T06:00:17;4.30;99.90
47162;DHT22;32921;53.256;8.198;2023-12-14T06:02:43;4.30;99.90
47162;DHT22;32921;53.256;8.198;2023-12-14T06:05:09;4.30;99.90
47162;DHT22;32921;53.256;8.198;2023-12-14T06:07:34;4.30;99.90
47162;DHT22;32921;53.256;8.198;2023-12-14T06:10:00;4.30;99.90
47162;DHT22;32921;53.256;8.198;2023-12-14T06:12:27;4.30;99.90
47162;DHT22;32921;53.256;8.198;2023-12-14T06:14:52;4.30;99.90
47162;DHT22;32921;53.256;8.198;2023-12-14T06:17:18;4.30;99.90
47162;DHT22;32921;53.256;8.198;2023-12-14T06:19:43;4.30;99.90
47162;DHT22;32921;53.256;8.198;2023-12-14T06:22:09;4.30;99.90
47162;DHT22;32921;53.256;8.198;2023-12-14T06:24:35;4.20;99.90
47162;DHT22;32921;53.256;8.198;2023-12-14T06:27:00;4.30;99.90
47162;DHT22;32921;53.256;8.198;2023-12-14T06:29:26;4.30;99.90
47162;DHT22;32921;53.256;8.198;2023-12-14T06:31:51;4.30;99.90
47162;DHT22;32921;53.256;8.198;2023-12-14T06:34:17;4.30;99.90
47162;DHT22;32921;53.256;8.198;2023-12-14T06:36:44;4.20;99.90
47162;DHT22;32921;53.256;8.198;2023-12-14T06:39:10;4.20;99.90
47162;DHT22;32921;53.256;8.198;2023-12-14T06:41:36;4.20;99.90
47162;DHT22;32921;53.256;8.198;2023-12-14T06:44:02;4.20;99.90
47162;DHT22;32921;53.256;8.198;2023-12-14T06:46:28;4.20;99.90
47162;DHT22;32921;53.256;8.198;2023-12-14T06:48:53;4.20;99.90
47162;DHT22;32921;53.256;8.198;2023-12-14T06:51:21;4.20;99.90
47162;DHT22;32921;53.256;8.198;2023-12-14T06:53:47;4.20;99.90
47162;DHT22;32921;53.256;8.198;2023-12-14T06:56:13;4.20;99.90
47162;DHT22;32921;53.256;8.198;2023-12-14T06:58:43;4.20;99.90
47162;DHT22;32921;53.256;8.198;2023-12-14T07:01:16;4.20;99.90
47162;DHT22;32921;53.256;8.198;2023-12-14T07:03:43;4.20;99.90
47162;DHT22;32921;53.256;8.198;2023-12-14T07:06:16;4.30;99.90
47162;DHT22;32921;53.256;8.198;2023-12-14T07:08:42;4.30;99.90
47162;DHT22;32921;53.256;8.198;2023-12-14T07:11:09;4.30;99.90
47162;DHT22;32921;53.256;8.198;2023-12-14T07:13:35;4.30;99.90
47162;DHT22;32921;53.256;8.198;2023-12-14T07:16:04;4.30;99.90
47162;DHT22;32921;53.256;8.198;2023-12-14T07:18:30;4.30;99.90
47162;DHT22;32921;53.256;8.198;2023-12-14T07:20:56;4.30;99.90
47162;DHT22;32921;53.256;8.198;2023-12-14T07:23:22;4.30;99.90
47162;DHT22;32921;53.256;8.198;2023-12-14T07:25:47;4.20;99.90
47162;DHT22;32921;53.256;8.198;2023-12-14T07:28:13;4.30;99.90
47162;DHT22;32921;53.256;8.198;2023-12-14T07:30:38;4.30;99.90
47162;DHT22;32921;53.256;8.198;2023-12-14T07:33:04;4.20;99.90
47162;DHT22;32921;53.256;8.198;2023-12-14T07:35:29;4.20;99.90
47162;DHT22;32921;53.256;8.198;2023-12-14T07:37:55;4.20;99.90
47162;DHT22;32921;53.256;8.198;2023-12-14T07:40:21;4.20;99.90
47162;DHT22;32921;53.256;8.198;2023-12-14T07:42:46;4.20;99.90
47162;DHT22;32921;53.256;8.198;2023-12-14T07:45:12;4.20;99.90
47162;DHT22;32921;53.256;8.198;2023-12-14T07:47:38;4.20;99.90
47162;DHT22;32921;53.256;8.198;2023-12-14T07:50:04;4.30;99.90
47162;DHT22;32921;53.256;8.198;2023-12-14T07:52:29;4.40;99.90
47162;DHT22;32921;53.256;8.198;2023-12-14T07:54:55;4.40;99.90
47162;DHT22;32921;53.256;8.198;2023-12-14T07:57:20;4.40;99.90
47162;DHT22;32921;53.256;8.198;2023-12-14T07:59:46;4.30;99.90
47162;DHT22;32921;53.256;8.198;2023-12-14T08:02:12;4.40;99.90
47162;DHT22;32921;53.256;8.198;2023-12-14T08:04:37;4.40;99.90
47162;DHT22;32921;53.256;8.198;2023-12-14T08:07:03;4.40;99.90
47162;DHT22;32921;53.256;8.198;2023-12-14T08:09:29;4.40;99.90
47162;DHT22;32921;53.256;8.198;2023-12-14T08:11:54;4.40;99.90
47162;DHT22;32921;53.256;8.198;2023-12-14T08:14:20;4.40;99.90
47162;DHT22;32921;53.256;8.198;2023-12-14T08:16:45;4.40;99.90
47162;DHT22;32921;53.256;8.198;2023-12-14T08:19:11;4.50;99.90
47162;DHT22;32921;53.256;8.198;2023-12-14T08:21:36;4.50;99.90
47162;DHT22;32921;53.256;8.198;2023-12-14T08:24:02;4.50;99.90
47162;DHT22;32921;53.256;8.198;2023-12-14T08:26:28;4.50;99.90
47162;DHT22;32921;53.256;8.198;2023-12-14T08:28:54;4.40;99.90
47162;DHT22;32921;53.256;8.198;2023-12-14T08:31:19;4.40;99.90
47162;DHT22;32921;53.256;8.198;2023-12-14T08:33:45;4.50;99.90
47162;DHT22;32921;53.256;8.198;2023-12-14T08:36:15;4.60;99.90
47162;DHT22;32921;53.256;8.198;2023-12-14T08:38:40;4.60;99.90
47162;DHT22;32921;53.256;8.198;2023-12-14T08:41:06;4.60;99.90
47162;DHT22;32921;53.256;8.198;2023-12-14T08:43:32;4.70;99.90
47162;DHT22;32921;53.256;8.198;2023-12-14T08:45:57;4.70;99.90
47162;DHT22;32921;53.256;8.198;2023-12-14T08:48:23;4.70;99.90
47162;DHT22;32921;53.256;8.198;2023-12-14T08:50:49;4.60;99.90
47162;DHT22;32921;53.256;8.198;2023-12-14T08:53:14;4.80;99.90
47162;DHT22;32921;53.256;8.198;2023-12-14T08:55:40;4.90;99.90
47162;DHT22;32921;53.256;8.198;2023-12-14T08:58:05;4.80;99.90
47162;DHT22;32921;53.256;8.198;2023-12-14T09:00:31;4.90;99.90
47162;DHT22;32921;53.256;8.198;2023-12-14T09:02:57;4.80;99.90
47162;DHT22;32921;53.256;8.198;2023-12-14T09:05:24;4.90;99.90
47162;DHT22;32921;53.256;8.198;2023-12-14T09:07:49;4.90;99.90
47162;DHT22;32921;53.256;8.198;2023-12-14T09:10:18;4.90;99.90
47162;DHT22;32921;53.256;8.198;2023-12-14T09:12:43;5.00;99.90
47162;DHT22;32921;53.256;8.198;2023-12-14T09:15:09;5.00;99.90
47162;DHT22;32921;53.256;8.198;2023-12-14T09:17:35;5.00;99.90
47162;DHT22;32921;53.256;8.198;2023-12-14T09:20:01;5.00;99.90
47162;DHT22;32921;53.256;8.198;2023-12-14T09:22:26;5.00;99.90
47162;DHT22;32921;53.256;8.198;2023-12-14T09:24:52;5.00;99.90
47162;DHT22;32921;53.256;8.198;2023-12-14T09:27:18;5.00;99.90
47162;DHT22;32921;53.256;8.198;2023-12-14T09:29:43;5.00;99.90
47162;DHT22;32921;53.256;8.198;2023-12-14T09:32:09;5.10;99.90
47162;DHT22;32921;53.256;8.198;2023-12-14T09:34:35;5.10;99.90
47162;DHT22;32921;53.256;8.198;2023-12-14T09:37:00;5.10;99.90
47162;DHT22;32921;53.256;8.198;2023-12-14T09:39:26;5.10;99.90
47162;DHT22;32921;53.256;8.198;2023-12-14T09:42:06;5.20;99.90
47162;DHT22;32921;53.256;8.198;2023-12-14T09:44:33;5.20;99.90
47162;DHT22;32921;53.256;8.198;2023-12-14T09:46:59;5.20;99.90
47162;DHT22;32921;53.256;8.198;2023-12-14T09:49:32;5.20;99.90
47162;DHT22;32921;53.256;8.198;2023-12-14T09:51:58;5.20;99.90
47162;DHT22;32921;53.256;8.198;2023-12-14T09:54:26;5.20;99.90
47162;DHT22;32921;53.256;8.198;2023-12-14T09:56:51;5.30;99.90
47162;DHT22;32921;53.256;8.198;2023-12-14T09:59:18;5.30;99.90
47162;DHT22;32921;53.256;8.198;2023-12-14T10:01:44;5.30;99.90
47162;DHT22;32921;53.256;8.198;2023-12-14T10:04:11;5.50;99.90
47162;DHT22;32921;53.256;8.198;2023-12-14T10:06:39;5.50;99.90
47162;DHT22;32921;53.256;8.198;2023-12-14T10:09:05;5.60;99.90
47162;DHT22;32921;53.256;8.198;2023-12-14T10:11:37;5.60;99.90
47162;DHT22;32921;53.256;8.198;2023-12-14T10:14:13;5.60;99.90
47162;DHT22;32921;53.256;8.198;2023-12-14T10:16:42;5.60;99.90
47162;DHT22;32921;53.256;8.198;2023-12-14T10:19:08;5.60;99.90
47162;DHT22;32921;53.256;8.198;2023-12-14T10:21:35;5.70;99.90
47162;DHT22;32921;53.256;8.198;2023-12-14T10:24:01;5.70;99.90
47162;DHT22;32921;53.256;8.198;2023-12-14T10:26:27;5.80;99.90
47162;DHT22;32921;53.256;8.198;2023-12-14T10:28:53;5.80;99.90
47162;DHT22;32921;53.256;8.198;2023-12-14T10:31:19;5.70;99.90
47162;DHT22;32921;53.256;8.198;2023-12-14T10:33:45;5.70;99.90
47162;DHT22;32921;53.256;8.198;2023-12-14T10:36:13;5.70;99.90
47162;DHT22;32921;53.256;8.198;2023-12-14T10:38:40;5.70;99.90
47162;DHT22;32921;53.256;8.198;2023-12-14T10:41:09;5.70;99.90
47162;DHT22;32921;53.256;8.198;2023-12-14T10:43:39;5.80;99.90
47162;DHT22;32921;53.256;8.198;2023-12-14T10:46:06;5.80;99.90
47162;DHT22;32921;53.256;8.198;2023-12-14T10:48:37;5.80;99.90
47162;DHT22;32921;53.256;8.198;2023-12-14T10:51:06;5.80;99.90
47162;DHT22;32921;53.256;8.198;2023-12-14T10:53:34;5.90;99.90
47162;DHT22;32921;53.256;8.198;2023-12-14T10:56:02;6.10;99.90
47162;DHT22;32921;53.256;8.198;2023-12-14T10:58:56;6.10;99.90
47162;DHT22;32921;53.256;8.198;2023-12-14T11:01:23;6.10;99.90
47162;DHT22;32921;53.256;8.198;2023-12-14T11:03:50;6.20;99.90
47162;DHT22;32921;53.256;8.198;2023-12-14T11:08:54;6.30;99.90
47162;DHT22;32921;53.256;8.198;2023-12-14T11:11:21;6.40;99.90
47162;DHT22;32921;53.256;8.198;2023-12-14T11:13:52;6.40;99.90
47162;DHT22;32921;53.256;8.198;2023-12-14T11:16:26;6.50;99.90
47162;DHT22;32921;53.256;8.198;2023-12-14T11:19:26;6.50;99.90
47162;DHT22;32921;53.256;8.198;2023-12-14T11:24:36;6.50;99.90
47162;DHT22;32921;53.256;8.198;2023-12-14T11:27:06;6.60;99.90
47162;DHT22;32921;53.256;8.198;2023-12-14T11:29:33;6.60;99.90
47162;DHT22;32921;53.256;8.198;2023-12-14T11:31:58;6.70;99.90
47162;DHT22;32921;53.256;8.198;2023-12-14T11:34:24;6.80;99.90
47162;DHT22;32921;53.256;8.198;2023-12-14T11:36:50;6.80;99.90
47162;DHT22;32921;53.256;8.198;2023-12-14T11:39:16;6.80;99.90
47162;DHT22;32921;53.256;8.198;2023-12-14T11:41:41;6.80;99.90
47162;DHT22;32921;53.256;8.198;2023-12-14T11:44:07;6.70;99.90
47162;DHT22;32921;53.256;8.198;2023-12-14T11:46:32;6.70;99.90
47162;DHT22;32921;53.256;8.198;2023-12-14T11:48:58;6.70;99.90
47162;DHT22;32921;53.256;8.198;2023-12-14T11:51:24;6.80;99.90
47162;DHT22;32921;53.256;8.198;2023-12-14T11:53:55;6.80;99.90
47162;DHT22;32921;53.256;8.198;2023-12-14T11:58:56;6.80;99.90
47162;DHT22;32921;53.256;8.198;2023-12-14T12:01:22;6.80;99.90
47162;DHT22;32921;53.256;8.198;2023-12-14T12:03:48;6.80;99.90
47162;DHT22;32921;53.256;8.198;2023-12-14T12:06:22;6.80;99.90
47162;DHT22;32921;53.256;8.198;2023-12-14T12:08:48;6.80;99.90
47162;DHT22;32921;53.256;8.198;2023-12-14T12:11:24;6.90;99.90
47162;DHT22;32921;53.256;8.198;2023-12-14T12:13:53;7.00;99.90
47162;DHT22;32921;53.256;8.198;2023-12-14T12:16:20;7.10;99.90
47162;DHT22;32921;53.256;8.198;2023-12-14T12:18:46;7.10;99.90
47162;DHT22;32921;53.256;8.198;2023-12-14T12:21:12;6.80;99.90
47162;DHT22;32921;53.256;8.198;2023-12-14T12:23:38;6.80;99.90
47162;DHT22;32921;53.256;8.198;2023-12-14T12:26:04;6.80;99.90
47162;DHT22;32921;53.256;8.198;2023-12-14T12:28:31;6.90;99.90
47162;DHT22;32921;53.256;8.198;2023-12-14T12:30:57;6.90;99.90
47162;DHT22;32921;53.256;8.198;2023-12-14T12:33:23;7.00;99.90
47162;DHT22;32921;53.256;8.198;2023-12-14T12:35:48;7.10;99.90
47162;DHT22;32921;53.256;8.198;2023-12-14T12:38:15;7.10;99.90
47162;DHT22;32921;53.256;8.198;2023-12-14T12:40:42;7.20;99.90
47162;DHT22;32921;53.256;8.198;2023-12-14T12:43:08;7.30;99.90
47162;DHT22;32921;53.256;8.198;2023-12-14T12:45:33;7.30;99.90
47162;DHT22;32921;53.256;8.198;2023-12-14T12:48:00;7.30;99.90
47162;DHT22;32921;53.256;8.198;2023-12-14T12:50:28;7.30;99.90
47162;DHT22;32921;53.256;8.198;2023-12-14T12:52:54;7.10;99.90
47162;DHT22;32921;53.256;8.198;2023-12-14T12:55:19;7.00;99.90
47162;DHT22;32921;53.256;8.198;2023-12-14T12:57:45;6.90;99.90
47162;DHT22;32921;53.256;8.198;2023-12-14T13:00:11;7.00;99.90
47162;DHT22;32921;53.256;8.198;2023-12-14T13:02:46;7.00;99.90
47162;DHT22;32921;53.256;8.198;2023-12-14T13:05:11;7.00;99.90
47162;DHT22;32921;53.256;8.198;2023-12-14T13:07:37;7.00;99.90
47162;DHT22;32921;53.256;8.198;2023-12-14T13:10:04;6.90;99.90
47162;DHT22;32921;53.256;8.198;2023-12-14T13:12:31;6.90;99.90
47162;DHT22;32921;53.256;8.198;2023-12-14T13:14:57;6.90;99.90
47162;DHT22;32921;53.256;8.198;2023-12-14T13:17:22;7.00;99.90
47162;DHT22;32921;53.256;8.198;2023-12-14T13:19:48;6.90;99.90
47162;DHT22;32921;53.256;8.198;2023-12-14T13:22:14;6.80;99.90
47162;DHT22;32921;53.256;8.198;2023-12-14T13:24:40;6.80;99.90
47162;DHT22;32921;53.256;8.198;2023-12-14T13:27:05;6.80;99.90
47162;DHT22;32921;53.256;8.198;2023-12-14T13:29:31;6.80;99.90
47162;DHT22;32921;53.256;8.198;2023-12-14T13:31:58;6.90;99.90
47162;DHT22;32921;53.256;8.198;2023-12-14T13:34:25;6.90;99.90
47162;DHT22;32921;53.256;8.198;2023-12-14T13:36:50;6.90;99.90
47162;DHT22;32921;53.256;8.198;2023-12-14T13:39:16;6.80;99.90
47162;DHT22;32921;53.256;8.198;2023-12-14T13:41:42;6.70;99.90
47162;DHT22;32921;53.256;8.198;2023-12-14T13:44:07;6.60;99.90
47162;DHT22;32921;53.256;8.198;2023-12-14T13:46:33;6.50;99.90
47162;DHT22;32921;53.256;8.198;2023-12-14T13:48:58;6.50;99.90
47162;DHT22;32921;53.256;8.198;2023-12-14T13:51:25;6.60;99.90
47162;DHT22;32921;53.256;8.198;2023-12-14T13:53:51;6.50;99.90
47162;DHT22;32921;53.256;8.198;2023-12-14T13:56:16;6.40;99.90
47162;DHT22;32921;53.256;8.198;2023-12-14T13:58:42;6.30;99.90
47162;DHT22;32921;53.256;8.198;2023-12-14T14:01:07;6.30;99.90
47162;DHT22;32921;53.256;8.198;2023-12-14T14:03:34;6.20;99.90
47162;DHT22;32921;53.256;8.198;2023-12-14T14:06:01;6.20;99.90
47162;DHT22;32921;53.256;8.198;2023-12-14T14:08:27;6.20;99.90
47162;DHT22;32921;53.256;8.198;2023-12-14T14:10:53;6.10;99.90
47162;DHT22;32921;53.256;8.198;2023-12-14T14:13:18;6.10;99.90
47162;DHT22;32921;53.256;8.198;2023-12-14T14:15:45;6.00;99.90
47162;DHT22;32921;53.256;8.198;2023-12-14T14:18:12;6.00;99.90
47162;DHT22;32921;53.256;8.198;2023-12-14T14:20:37;6.00;99.90
47162;DHT22;32921;53.256;8.198;2023-12-14T14:23:03;5.90;99.90
47162;DHT22;32921;53.256;8.198;2023-12-14T14:25:28;6.00;99.90
47162;DHT22;32921;53.256;8.198;2023-12-14T14:27:54;6.00;99.90
47162;DHT22;32921;53.256;8.198;2023-12-14T14:30:20;5.80;99.90
47162;DHT22;32921;53.256;8.198;2023-12-14T14:32:45;5.60;99.90
47162;DHT22;32921;53.256;8.198;2023-12-14T14:35:11;5.50;99.90
47162;DHT22;32921;53.256;8.198;2023-12-14T14:37:37;5.40;99.90
47162;DHT22;32921;53.256;8.198;2023-12-14T14:40:03;5.30;99.90
47162;DHT22;32921;53.256;8.198;2023-12-14T14:42:29;5.20;99.90
47162;DHT22;32921;53.256;8.198;2023-12-14T14:44:55;5.20;99.90
47162;DHT22;32921;53.256;8.198;2023-12-14T14:47:21;5.10;99.90
47162;DHT22;32921;53.256;8.198;2023-12-14T14:49:47;5.20;99.90
47162;DHT22;32921;53.256;8.198;2023-12-14T14:52:12;5.40;99.90
47162;DHT22;32921;53.256;8.198;2023-12-14T14:54:38;5.40;99.90
47162;DHT22;32921;53.256;8.198;2023-12-14T14:57:06;5.30;99.90
47162;DHT22;32921;53.256;8.198;2023-12-14T14:59:31;5.30;99.90
47162;DHT22;32921;53.256;8.198;2023-12-14T15:01:57;5.30;99.90
47162;DHT22;32921;53.256;8.198;2023-12-14T15:04:25;5.30;99.90
47162;DHT22;32921;53.256;8.198;2023-12-14T15:06:51;5.30;99.90
47162;DHT22;32921;53.256;8.198;2023-12-14T15:09:16;5.30;99.90
47162;DHT22;32921;53.256;8.198;2023-12-14T15:11:42;5.30;99.90
47162;DHT22;32921;53.256;8.198;2023-12-14T15:14:07;5.30;99.90
47162;DHT22;32921;53.256;8.198;2023-12-14T15:16:33;5.40;99.90
47162;DHT22;32921;53.256;8.198;2023-12-14T15:18:59;5.50;99.90
47162;DHT22;32921;53.256;8.198;2023-12-14T15:21:24;5.40;99.90
47162;DHT22;32921;53.256;8.198;2023-12-14T15:23:50;5.30;99.90
47162;DHT22;32921;53.256;8.198;2023-12-14T15:26:16;5.20;99.90
47162;DHT22;32921;53.256;8.198;2023-12-14T15:28:41;5.20;99.90
47162;DHT22;32921;53.256;8.198;2023-12-14T15:31:07;5.20;99.90
47162;DHT22;32921;53.256;8.198;2023-12-14T15:33:33;5.20;99.90
47162;DHT22;32921;53.256;8.198;2023-12-14T15:35:58;5.20;99.90
47162;DHT22;32921;53.256;8.198;2023-12-14T15:38:26;5.20;99.90
47162;DHT22;32921;53.256;8.198;2023-12-14T15:40:54;5.20;99.90
47162;DHT22;32921;53.256;8.198;2023-12-14T15:43:19;5.20;99.90
47162;DHT22;32921;53.256;8.198;2023-12-14T15:45:45;5.20;99.90